Date,TemperatureHighF,TemperatureAvgF,TemperatureLowF,DewpointHighF,DewpointAvgF,DewpointLowF,HumidityHigh,HumidityAvg,HumidityLow,PressureMaxIn,PressureMinIn,WindSpeedMaxMPH,WindSpeedAvgMPH,GustSpeedMaxMPH,PrecipitationSumIn
2013-1-1,39,36,28,0,0,0,0,0,100,29.84,29.67,9,2,16,0.07
2013-1-2,31,27,21,0,0,0,0,0,100,30.01,29.83,12,2,19,0.00
2013-1-3,29,25,21,0,0,0,0,0,100,30.05,29.92,9,1,13,0.00
2013-1-4,38,32,24,0,0,0,0,0,100,29.94,29.78,5,1,16,0.00
2013-1-5,42,33,26,0,0,0,0,0,100,30.14,29.84,9,1,17,0.00
2013-1-6,43,35,28,0,0,0,0,0,100,30.09,29.84,4,0,11,0.01
2013-1-7,42,34,25,0,0,0,0,0,100,30.27,29.89,7,1,19,0.00
2013-1-8,46,35,26,0,0,0,0,0,100,30.30,30.21,6,1,15,0.00
2013-1-9,47,38,26,0,0,0,0,0,100,30.26,29.98,7,1,13,0.00
2013-1-10,46,40,32,0,0,0,0,0,100,30.42,30.06,15,2,19,0.00
2013-1-11,46,38,28,0,0,0,0,0,100,30.41,29.99,2,0,7,0.41
2013-1-12,48,45,43,0,0,0,0,0,100,30.04,29.92,3,0,8,0.14
2013-1-13,49,45,41,0,0,0,0,0,100,30.05,29.90,2,0,6,0.01
2013-1-14,57,49,38,0,0,0,0,0,100,30.14,29.83,5,0,14,0.04
2013-1-15,39,37,35,0,0,0,0,0,100,30.20,30.08,2,0,9,0.20
2013-1-16,38,36,34,0,0,0,0,0,100,30.10,29.66,4,0,15,0.92
2013-1-17,43,38,33,0,0,0,0,0,100,29.95,29.83,12,2,16,0.01
2013-1-18,34,26,19,0,0,0,0,0,100,30.37,29.88,10,1,23,0.00
2013-1-19,46,39,20,0,0,0,0,0,100,30.30,29.82,11,2,15,0.01
2013-1-20,54,44,32,0,0,0,0,0,100,29.87,29.53,15,3,19,0.00
2013-1-21,34,29,23,0,0,0,0,0,100,29.98,29.67,6,1,11,0.00
2013-1-22,28,21,14,0,0,0,0,0,100,30.02,29.66,19,3,23,0.00
2013-1-23,17,14,6,0,0,0,0,0,100,30.05,30.02,6,2,16,0.00
2013-1-24,21,14,2,0,0,0,0,0,100,30.21,29.99,13,2,25,0.00
2013-1-25,25,18,6,0,0,0,0,0,100,30.26,29.91,11,1,15,0.00
2013-1-26,25,20,11,0,0,0,0,0,100,30.20,29.89,15,2,22,0.00
2013-1-27,31,20,8,0,0,0,0,0,100,30.36,30.20,12,1,21,0.00
2013-1-28,36,28,15,0,0,0,0,0,100,30.34,29.86,4,0,7,0.22
2013-1-29,42,36,32,0,0,0,0,0,100,30.03,29.85,2,0,4,0.02
2013-1-30,55,50,40,0,0,0,0,0,100,29.98,29.31,7,2,17,0.00
2013-1-31,57,46,30,0,0,0,0,0,100,29.61,28.96,22,5,30,0.32
2013-2-1,32,29,24,0,0,0,0,0,100,30.06,29.61,17,4,30,0.00
2013-2-2,30,26,18,0,0,0,0,0,100,30.17,29.94,7,1,17,0.00
2013-2-3,31,26,19,0,0,0,0,0,100,29.94,29.63,5,0,11,0.02
2013-2-4,31,26,19,0,0,0,0,0,100,29.84,29.64,13,2,23,0.00
2013-2-5,31,29,24,0,0,0,0,0,100,29.84,29.76,2,0,5,0.00
2013-2-6,39,32,27,0,0,0,0,0,100,30.21,29.77,13,2,26,0.02
2013-2-7,33,28,22,0,0,0,0,0,100,30.38,30.21,3,0,12,0.01
2013-2-8,36,33,30,0,0,0,0,0,100,30.22,29.37,6,1,11,0.54
2013-2-9,32,31,28,0,0,0,0,0,100,30.14,29.49,4,0,11,0.00
2013-2-10,28,22,14,0,0,0,0,0,100,30.33,30.14,1,0,4,0.00
2013-2-11,40,33,18,0,0,0,0,0,100,30.22,29.52,4,0,15,1.22
2013-2-12,42,36,29,0,0,0,0,0,100,29.81,29.55,22,2,26,0.19
2013-2-13,39,31,21,0,0,0,0,0,100,29.80,29.53,4,0,6,0.02
2013-2-14,40,32,23,0,0,0,0,0,100,29.88,29.55,3,0,10,0.08
2013-2-15,42,34,26,0,0,0,0,0,100,29.90,29.80,4,0,13,0.00
2013-2-16,37,34,30,0,0,0,0,0,100,29.80,29.54,6,1,12,0.01
2013-2-17,30,25,17,0,0,0,0,0,100,29.75,29.43,20,5,35,0.00
2013-2-18,31,22,17,0,0,0,0,0,100,30.09,29.75,24,4,31,0.00
2013-2-19,44,35,22,0,0,0,0,0,100,30.09,29.51,9,1,12,0.34
2013-2-20,38,31,25,0,0,0,0,0,100,29.80,29.53,18,4,25,0.00
2013-2-21,34,27,22,0,0,0,0,0,100,30.11,29.77,19,4,29,0.00
2013-2-22,37,31,24,0,0,0,0,0,100,30.25,30.10,4,0,13,0.00
2013-2-23,39,36,33,0,0,0,0,0,100,30.15,29.65,4,1,9,0.19
2013-2-24,42,37,32,0,0,0,0,0,100,29.78,29.57,10,2,18,0.02
2013-2-25,43,35,26,0,0,0,0,0,100,30.10,29.78,6,0,11,0.00
2013-2-26,42,37,34,0,0,0,0,0,100,30.18,29.84,5,1,10,0.16
2013-2-27,47,43,37,0,0,0,0,0,100,29.81,29.37,10,2,18,1.57
2013-2-28,46,40,34,0,0,0,0,0,100,29.49,29.39,9,0,11,0.19
2013-3-1,45,39,33,0,0,0,0,0,100,29.60,29.43,11,2,17,0.01
2013-3-2,40,36,34,0,0,0,0,0,100,29.61,29.52,11,2,16,0.02
2013-3-3,37,33,30,0,0,0,0,0,100,29.57,29.49,12,2,21,0.00
2013-3-4,42,34,30,0,0,0,0,0,100,29.70,29.55,15,4,23,0.00
2013-3-5,46,38,31,0,0,0,0,0,100,29.90,29.70,8,1,19,0.00
2013-3-6,42,38,31,0,0,0,0,0,100,29.87,29.69,0,0,1,0.03
2013-3-7,36,34,32,0,0,0,0,0,100,29.87,29.72,0,0,1,0.28
2013-3-8,36,33,32,0,0,0,0,0,100,29.98,29.80,0,0,0,0.42
2013-3-9,46,37,29,0,0,0,0,0,100,30.20,29.98,0,0,0,0.33
2013-3-10,42,34,24,0,0,0,0,0,100,30.27,30.18,0,0,0,0.13
2013-3-11,51,41,30,0,0,0,0,0,100,30.20,29.98,0,0,0,0.09
2013-3-12,52,49,45,0,0,0,0,0,100,29.99,29.57,1,0,3,0.71
2013-3-13,50,42,32,0,0,0,0,0,100,29.73,29.64,0,0,0,0.00
2013-3-14,39,33,26,0,0,0,0,0,100,29.78,29.69,0,0,0,0.00
2013-3-15,43,36,26,0,0,0,0,0,100,29.81,29.58,0,0,0,0.00
2013-3-16,40,34,29,0,0,0,0,0,100,29.75,29.61,0,0,0,0.04
2013-3-17,37,31,24,0,0,0,0,0,100,30.16,29.75,0,0,0,0.02
2013-3-18,37,31,24,0,0,0,0,0,100,30.29,29.92,0,0,1,0.03
2013-3-19,40,37,32,0,0,0,0,0,100,29.92,29.49,0,0,0,1.00
2013-3-20,44,36,28,0,0,0,0,0,100,29.73,29.64,0,0,0,0.00
2013-3-21,38,32,28,0,0,0,0,0,100,29.70,29.49,0,0,0,0.00
2013-3-22,42,34,25,0,0,0,0,0,100,29.72,29.55,0,0,0,0.00
2013-3-23,46,38,28,0,0,0,0,0,100,29.75,29.61,0,0,0,0.00
2013-3-24,46,36,26,0,0,0,0,0,100,29.79,29.58,0,0,0,0.00
2013-3-25,41,37,33,0,0,0,0,0,100,29.61,29.29,0,0,0,0.09
2013-3-26,50,40,30,0,0,0,0,0,100,29.69,29.40,0,0,0,0.02
2013-3-27,53,40,28,0,0,0,0,0,100,29.78,29.69,0,0,0,0.00
2013-3-28,50,42,34,0,0,0,0,0,100,29.93,29.78,0,0,0,0.00
2013-3-29,55,46,36,0,0,0,0,0,100,29.97,29.89,0,0,0,0.00
2013-3-30,59,43,29,34,13,0,83,22,24,30.01,29.92,11,1,16,0.00
2013-3-31,55,43,29,45,36,26,97,78,53,30.00,29.51,5,1,11,0.12
2013-4-1,56,46,37,48,42,22,97,86,53,29.72,29.48,7,2,17,0.12
2013-4-2,44,36,28,22,16,11,78,45,27,29.92,29.73,14,3,27,0.00
2013-4-3,47,38,30,17,14,11,55,38,25,30.12,29.92,17,4,25,0.00
2013-4-4,47,38,25,33,23,14,77,56,39,30.25,29.98,6,2,13,0.00
2013-4-5,63,47,40,40,31,20,92,60,21,29.98,29.54,11,2,17,0.00
2013-4-6,50,40,32,28,18,7,78,44,18,30.20,29.80,13,2,21,0.00
2013-4-7,54,42,29,44,35,25,94,76,57,30.19,29.90,9,2,15,0.00
2013-4-8,68,53,40,48,44,38,97,74,46,29.95,29.84,5,1,11,0.00
2013-4-9,81,62,49,53,45,39,93,61,23,29.90,29.77,16,2,27,0.00
2013-4-10,68,56,49,53,48,43,96,75,55,29.89,29.66,10,1,33,0.17
2013-4-11,60,51,46,53,47,38,99,87,72,29.93,29.64,5,2,10,0.13
2013-4-12,46,43,40,42,39,34,97,87,66,29.93,29.57,9,2,15,0.88
2013-4-13,57,46,38,42,38,34,97,79,43,29.84,29.57,13,2,16,0.08
2013-4-14,58,49,41,45,36,27,97,63,31,30.09,29.83,18,2,22,0.00
2013-4-15,58,46,34,38,34,28,87,65,44,30.26,30.09,4,1,9,0.00
2013-4-16,60,51,39,52,45,35,96,81,70,30.25,30.01,7,2,16,0.00
2013-4-17,72,58,48,52,43,32,92,63,24,30.16,29.97,5,1,13,0.01
2013-4-18,59,51,39,51,42,36,93,73,50,30.24,30.00,7,1,11,0.00
2013-4-19,68,59,53,62,57,51,98,94,78,29.99,29.57,8,2,24,0.01
2013-4-20,60,53,46,60,41,29,98,68,34,30.10,29.54,10,2,19,0.08
2013-4-21,59,44,36,33,26,20,77,51,27,30.50,30.11,9,2,14,0.00
2013-4-22,56,43,31,37,32,27,94,66,39,30.53,30.37,6,2,12,0.00
2013-4-23,49,44,41,43,39,33,93,83,71,30.36,29.92,5,2,12,0.00
2013-4-24,61,50,43,48,44,40,96,81,57,29.92,29.76,14,2,14,0.00
2013-4-25,66,53,43,50,39,25,95,63,21,30.13,29.75,12,2,18,0.04
2013-4-26,65,50,35,44,37,32,94,64,33,30.26,30.13,9,1,10,0.00
2013-4-27,63,50,38,45,38,29,92,65,29,30.27,30.18,7,1,10,0.00
2013-4-28,64,53,41,48,42,34,98,69,33,30.20,30.10,6,1,11,0.00
2013-4-29,61,55,51,48,45,41,88,71,48,30.13,30.08,6,1,8,0.00
2013-4-30,68,56,42,47,38,29,82,54,24,30.21,30.09,6,1,9,0.00
2013-5-1,68,52,35,51,41,30,92,68,47,30.35,30.20,4,1,9,0.00
2013-5-2,69,53,35,50,42,32,96,68,43,30.33,30.20,6,1,7,0.00
2013-5-3,66,54,44,48,43,37,85,66,46,30.33,30.23,7,1,9,0.00
2013-5-4,64,51,39,47,41,36,97,71,47,30.24,30.13,5,1,9,0.00
2013-5-5,63,49,37,46,40,33,94,74,51,30.16,30.11,5,1,7,0.00
2013-5-6,69,55,43,52,46,40,91,74,49,30.14,30.03,4,1,6,0.00
2013-5-7,75,59,43,64,53,40,97,82,61,30.04,29.97,4,1,7,0.00
2013-5-8,65,60,55,64,58,54,98,94,85,29.99,29.87,4,1,12,0.31
2013-5-9,63,58,54,61,56,53,99,96,88,29.89,29.73,3,0,6,0.27
2013-5-10,76,62,49,61,55,48,99,79,49,29.86,29.79,5,1,9,0.00
2013-5-11,65,60,58,63,58,54,99,94,85,29.78,29.57,6,1,11,0.23
2013-5-12,72,62,54,60,49,29,99,67,25,29.75,29.50,12,2,16,0.02
2013-5-13,57,50,40,36,32,27,80,51,33,29.93,29.76,10,2,16,0.00
2013-5-14,62,49,37,41,34,26,87,60,27,29.96,29.89,11,2,16,0.00
2013-5-15,65,54,43,55,48,40,97,80,50,29.94,29.56,7,1,11,0.00
2013-5-16,78,63,51,59,52,49,98,72,38,29.67,29.56,6,1,9,0.00
2013-5-17,76,65,53,47,43,40,71,47,30,30.06,29.86,9,2,16,0.00
2013-5-18,69,59,50,57,51,43,92,77,49,30.18,30.07,7,1,9,0.01
2013-5-19,58,57,56,57,55,51,98,93,82,30.22,30.06,5,1,6,0.46
2013-5-20,77,65,57,68,62,56,99,92,71,30.05,29.84,5,1,9,0.01
2013-5-21,79,68,59,70,64,58,99,87,67,29.84,29.73,4,1,10,0.01
2013-5-22,77,65,57,69,62,55,96,90,74,29.82,29.74,5,1,7,0.00
2013-5-23,71,65,62,68,64,62,99,95,87,29.81,29.66,6,2,18,0.41
2013-5-24,68,59,48,66,58,47,99,95,84,29.72,29.53,7,1,16,0.19
2013-5-25,48,47,45,48,45,42,98,94,85,29.78,29.67,12,3,23,0.36
2013-5-26,67,54,45,44,42,38,87,65,38,30.05,29.75,18,3,24,0.00
2013-5-27,72,58,43,50,43,33,92,62,26,30.09,30.01,7,1,13,0.00
2013-5-28,70,57,48,57,53,46,98,86,49,30.09,30.01,4,0,6,0.41
2013-5-29,74,64,56,67,61,56,99,91,74,30.01,29.89,4,1,7,0.00
2013-5-30,87,74,61,72,65,59,98,77,54,29.98,29.93,4,1,9,0.00
2013-5-31,88,75,63,73,66,61,97,75,49,29.98,29.87,4,1,12,0.00
2013-6-1,84,73,64,70,66,61,95,79,60,29.89,29.81,5,1,10,0.00
2013-6-2,76,69,65,68,64,62,94,84,72,29.82,29.68,6,2,13,0.00
2013-6-3,72,66,63,71,65,62,99,96,89,29.73,29.66,3,1,7,0.45
2013-6-4,77,64,55,64,50,45,96,63,35,29.95,29.70,11,2,17,0.00
2013-6-5,77,63,49,55,50,45,95,68,33,30.07,29.95,3,0,5,0.00
2013-6-6,72,64,53,60,56,50,97,78,49,30.02,29.90,3,1,6,0.00
2013-6-7,66,61,58,66,60,58,100,97,87,29.89,29.50,3,1,7,4.45
2013-6-8,75,65,55,68,63,55,100,91,75,29.90,29.37,9,1,13,0.22
2013-6-9,81,69,58,64,60,57,99,77,50,30.04,29.90,4,1,10,0.00
2013-6-10,73,64,60,68,62,59,99,94,81,30.04,29.74,3,1,5,2.35
2013-6-11,77,69,62,72,67,62,100,94,76,29.73,29.46,5,1,11,0.54
2013-6-12,77,68,59,61,56,54,91,67,46,29.71,29.51,10,2,19,0.00
2013-6-13,64,59,54,62,58,52,99,93,85,29.69,29.34,4,1,10,0.55
2013-6-14,73,60,54,60,56,53,99,86,57,29.70,29.34,5,1,13,0.38
2013-6-15,81,68,58,61,56,49,93,69,33,29.84,29.70,9,1,12,0.00
2013-6-16,77,67,55,66,61,53,96,82,52,29.84,29.64,4,1,9,0.00
2013-6-17,83,74,63,70,66,62,97,80,62,29.76,29.69,5,1,10,0.00
2013-6-18,81,70,62,72,66,60,97,87,68,29.77,29.69,2,0,5,0.20
2013-6-19,78,66,59,62,58,51,98,78,39,30.02,29.72,5,1,9,0.00
2013-6-20,79,66,55,61,56,53,97,72,46,30.14,30.02,5,1,10,0.00
2013-6-21,79,69,59,63,57,54,94,69,43,30.17,30.11,3,1,7,0.00
2013-6-22,80,70,60,66,62,56,97,76,48,30.13,30.02,4,1,6,0.00
2013-6-23,83,73,64,73,67,61,94,82,66,30.06,29.95,4,1,10,0.00
2013-6-24,90,78,71,78,72,64,97,81,61,29.95,29.80,5,1,9,0.00
2013-6-25,89,78,67,76,70,64,94,77,55,29.86,29.64,3,1,7,0.00
2013-6-26,86,78,72,74,70,67,93,78,64,29.69,29.61,5,1,9,0.00
2013-6-27,83,76,70,74,71,68,98,86,73,29.69,29.49,3,1,7,0.12
2013-6-28,83,75,70,75,72,70,98,90,72,29.49,29.37,3,1,11,0.01
2013-6-29,82,74,70,74,71,68,96,88,74,29.58,29.35,4,1,13,0.01
2013-6-30,78,73,71,74,71,69,98,93,86,29.81,29.58,4,1,6,0.09
2013-7-1,76,73,72,75,73,71,99,98,94,29.94,29.79,5,1,9,0.22
2013-7-2,78,74,72,75,72,71,99,95,86,30.07,29.94,6,1,10,0.01
2013-7-3,80,75,70,75,72,69,98,93,82,30.12,30.05,4,1,7,0.00
2013-7-4,89,78,73,78,74,71,98,87,68,30.12,30.04,7,1,12,0.00
2013-7-5,89,80,72,78,74,71,95,83,67,30.07,29.96,4,1,9,0.00
2013-7-6,92,81,75,81,75,72,93,82,61,29.99,29.88,4,1,7,0.00
2013-7-7,88,81,73,77,74,72,97,81,67,29.91,29.80,5,1,6,0.00
2013-7-8,88,79,72,76,72,69,91,80,64,29.90,29.81,3,1,7,0.00
2013-7-9,86,78,70,76,72,68,93,81,63,29.93,29.87,3,1,6,0.00
2013-7-10,83,78,74,76,73,71,95,87,73,29.89,29.67,4,1,10,0.00
2013-7-11,80,75,72,77,73,70,98,93,83,29.77,29.67,3,0,5,0.08
2013-7-12,77,71,68,72,69,67,99,93,80,29.98,29.77,6,1,10,0.39
2013-7-13,81,74,68,79,73,68,100,98,91,30.15,29.98,2,0,3,0.13
2013-7-14,90,79,73,79,75,72,100,87,66,30.18,30.10,4,1,7,0.00
2013-7-15,95,82,75,78,74,71,93,77,49,30.10,29.98,6,1,10,0.00
2013-7-16,96,82,72,78,72,69,93,74,48,30.03,29.96,5,0,11,0.00
2013-7-17,92,81,71,77,74,69,96,78,59,30.04,29.92,3,0,4,0.00
2013-7-18,96,85,75,79,76,72,93,75,52,29.92,29.81,5,1,7,0.00
2013-7-19,92,84,78,82,78,75,94,81,66,29.82,29.66,6,1,11,0.00
2013-7-20,90,83,76,78,76,74,93,81,66,29.69,29.57,6,1,13,0.01
2013-7-21,87,79,74,75,70,66,94,77,55,29.83,29.69,3,0,5,0.00
2013-7-22,86,77,72,77,73,69,96,88,73,29.82,29.68,3,0,5,0.00
2013-7-23,87,78,69,77,75,69,99,90,70,29.68,29.42,5,1,15,1.37
2013-7-24,84,75,68,76,71,63,100,87,65,29.76,29.45,6,0,9,0.00
2013-7-25,71,64,62,63,61,58,98,88,74,29.90,29.76,3,1,6,0.19
2013-7-26,79,66,61,72,65,61,100,95,78,29.92,29.81,3,0,9,0.64
2013-7-27,83,73,66,71,68,65,99,85,61,29.93,29.84,3,0,5,0.00
2013-7-28,80,73,68,72,69,66,98,88,72,29.87,29.81,2,0,4,0.00
2013-7-29,87,76,68,75,71,63,99,84,55,29.94,29.81,4,0,6,0.00
2013-7-30,83,71,61,62,60,57,94,71,45,30.01,29.93,6,1,13,0.00
2013-7-31,81,70,62,66,63,59,96,77,57,30.01,29.92,5,0,6,0.00
2013-8-1,77,69,66,71,67,63,99,93,77,29.92,29.70,3,0,5,0.21
2013-8-2,82,73,68,70,68,63,99,85,61,29.77,29.64,5,1,11,0.08
2013-8-3,80,71,67,70,67,65,94,87,69,29.77,29.70,4,0,10,0.02
2013-8-4,82,70,62,65,61,58,97,75,47,29.80,29.69,5,1,11,0.00
2013-8-5,79,67,59,58,55,50,89,68,38,29.91,29.79,9,1,14,0.00
2013-8-6,83,69,57,67,60,54,98,76,46,30.00,29.90,4,0,6,0.00
2013-8-7,78,70,59,68,64,54,97,82,68,30.02,29.96,4,0,4,0.00
2013-8-8,78,73,68,74,70,67,99,92,84,29.96,29.90,5,1,6,0.17
2013-8-9,78,74,73,76,73,71,99,95,91,29.91,29.67,6,1,12,0.06
2013-8-10,85,74,68,73,66,62,98,78,46,29.90,29.69,6,1,12,0.00
2013-8-11,79,70,58,65,60,53,93,72,47,29.97,29.90,4,0,9,0.00
2013-8-12,79,71,67,73,69,64,99,93,79,29.90,29.79,2,0,3,0.08
2013-8-13,72,69,65,72,68,64,100,98,93,29.80,29.56,1,0,4,1.12
2013-8-14,78,67,60,68,59,54,100,78,46,29.87,29.58,10,1,16,0.02
2013-8-15,77,66,54,58,55,48,96,71,41,30.01,29.88,4,1,11,0.00
2013-8-16,80,68,59,63,59,56,97,77,48,30.07,29.98,3,0,4,0.00
2013-8-17,83,68,57,65,60,54,98,78,48,30.14,30.07,2,0,5,0.00
2013-8-18,75,66,60,67,62,58,96,85,68,30.13,29.99,1,0,4,0.00
2013-8-19,78,68,58,69,63,56,96,84,63,29.99,29.88,3,0,8,0.00
2013-8-20,85,72,61,70,65,60,99,80,50,29.99,29.89,5,1,9,0.01
2013-8-21,87,74,64,71,67,62,98,80,49,30.02,29.92,4,0,6,0.00
2013-8-22,78,72,70,75,71,68,99,95,87,29.93,29.73,3,0,6,0.29
2013-8-23,79,72,64,70,66,61,98,84,57,29.95,29.70,4,0,9,0.00
2013-8-24,80,67,59,63,59,56,93,78,52,30.21,29.96,3,0,6,0.00
2013-8-25,83,67,55,64,58,52,99,76,44,30.24,30.10,5,0,7,0.00
2013-8-26,77,71,67,70,65,58,97,82,72,30.09,29.78,4,1,13,0.11
2013-8-27,86,73,68,75,70,67,99,93,71,29.78,29.67,3,0,9,0.20
2013-8-28,83,72,65,75,70,64,99,91,75,29.76,29.71,2,0,4,0.01
2013-8-29,78,71,67,70,67,64,97,90,74,29.90,29.75,2,0,6,0.01
2013-8-30,80,71,64,72,67,61,95,88,76,29.89,29.73,5,1,8,0.00
2013-8-31,80,74,71,74,71,70,95,90,81,29.74,29.67,6,1,10,0.00
2013-9-1,76,74,73,76,73,71,99,96,92,29.73,29.68,3,1,6,0.18
2013-9-2,78,74,71,75,73,69,99,96,91,29.70,29.58,3,0,4,0.01
2013-9-3,77,71,66,74,70,62,100,95,80,29.72,29.57,3,0,9,0.63
2013-9-4,81,68,58,66,61,57,99,81,54,29.83,29.72,6,1,7,0.01
2013-9-5,77,68,60,66,58,47,95,74,42,29.99,29.77,6,1,15,0.00
2013-9-6,72,60,53,55,50,47,87,70,48,30.10,29.99,4,0,9,0.00
2013-9-7,74,62,50,61,54,48,95,74,47,29.99,29.76,5,1,7,0.00
2013-9-8,79,70,60,66,59,47,94,72,37,29.93,29.66,6,1,10,0.00
2013-9-9,70,60,48,56,50,44,91,73,54,30.10,29.93,3,0,5,0.00
2013-9-10,76,69,59,72,66,56,98,92,83,30.04,29.93,6,1,11,0.08
2013-9-11,83,76,70,77,72,70,98,89,73,29.98,29.86,4,1,10,0.00
2013-9-12,78,74,70,74,71,69,99,93,86,29.86,29.55,5,1,14,1.05
2013-9-13,75,68,61,69,65,55,99,89,67,29.66,29.47,6,1,13,0.02
2013-9-14,68,60,54,56,53,50,88,79,60,29.95,29.66,7,1,12,0.00
2013-9-15,67,58,48,56,52,46,97,82,64,30.06,29.95,5,0,6,0.00
2013-9-16,69,62,57,62,57,45,97,85,61,30.07,29.90,5,0,10,0.02
2013-9-17,62,54,46,49,43,40,87,68,50,30.28,30.07,4,1,9,0.00
2013-9-18,68,54,43,52,47,40,98,78,53,30.21,30.05,3,0,6,0.00
2013-9-19,71,60,48,58,53,47,98,81,56,30.06,29.94,4,0,6,0.00
2013-9-20,74,62,51,61,56,50,99,84,56,29.96,29.88,3,0,6,0.00
2013-9-21,75,65,52,69,62,49,99,90,79,29.89,29.57,8,1,9,0.00
2013-9-22,69,64,55,68,58,45,99,83,58,29.74,29.51,8,1,14,1.65
2013-9-23,64,55,50,49,46,43,86,71,53,29.89,29.74,7,1,15,0.00
2013-9-24,67,55,45,55,47,42,93,76,52,29.89,29.72,5,1,12,0.00
2013-9-25,69,56,46,57,50,44,99,81,48,29.80,29.73,3,0,6,0.00
2013-9-26,67,58,51,57,54,49,97,85,63,29.96,29.80,3,0,5,0.00
2013-9-27,65,57,48,57,52,46,97,85,65,30.12,29.96,3,0,5,0.00
2013-9-28,70,59,49,59,54,48,99,84,58,30.18,30.10,3,0,5,0.00
2013-9-29,66,56,48,56,50,45,99,82,47,30.10,29.95,2,0,5,0.00
2013-9-30,68,56,49,58,53,46,99,89,68,29.95,29.84,3,0,6,0.00
2013-10-1,74,61,50,61,57,48,95,88,62,29.85,29.75,1,0,3,0.00
2013-10-2,79,66,54,66,60,53,99,83,54,29.85,29.75,7,1,11,0.00
2013-10-3,74,63,54,61,56,51,99,80,48,29.98,29.86,3,0,6,0.00
2013-10-4,79,67,59,69,64,57,99,88,71,29.94,29.84,5,0,6,0.00
2013-10-5,73,66,63,67,63,62,96,89,77,29.96,29.87,3,0,5,0.00
2013-10-6,66,65,64,65,63,62,98,95,92,29.99,29.92,2,0,4,0.00
2013-10-7,75,68,61,71,67,57,99,94,84,29.92,29.70,8,1,19,0.09
2013-10-8,65,57,50,57,50,46,95,77,50,30.18,29.81,4,1,12,0.00
2013-10-9,63,56,51,53,49,44,88,77,64,30.26,30.16,4,1,10,0.00
2013-10-10,65,59,54,60,55,50,94,86,82,30.15,29.94,4,1,8,0.01
2013-10-11,68,63,60,62,58,56,92,86,78,29.95,29.89,4,1,7,0.00
2013-10-12,68,61,56,57,53,43,85,74,56,30.16,29.93,7,1,12,0.01
2013-10-13,63,56,48,54,51,45,91,82,67,30.24,30.14,5,1,7,0.00
2013-10-14,62,51,42,54,46,40,98,85,67,30.24,30.12,3,0,5,0.00
2013-10-15,67,52,41,54,46,38,99,82,49,30.13,30.00,2,0,5,0.00
2013-10-16,68,59,49,61,56,46,96,89,76,29.99,29.78,2,0,4,0.00
2013-10-17,71,63,59,64,61,57,96,91,79,29.78,29.59,3,0,6,0.00
2013-10-18,66,60,48,63,52,44,97,75,49,29.83,29.53,7,2,18,0.02
2013-10-19,65,54,44,56,48,42,97,81,50,29.86,29.61,2,0,5,0.02
2013-10-20,61,54,45,59,44,39,99,73,46,29.92,29.58,6,1,16,0.00
2013-10-21,63,52,41,47,42,38,92,72,45,30.01,29.86,3,0,7,0.00
2013-10-22,66,56,48,54,49,44,98,80,57,29.86,29.59,7,1,12,0.00
2013-10-23,52,46,39,47,42,36,95,86,60,29.67,29.46,1,0,6,0.03
2013-10-24,54,45,36,42,33,29,95,67,40,29.83,29.57,10,1,17,0.00
2013-10-25,51,42,33,37,32,30,92,68,46,30.07,29.83,9,1,14,0.00
2013-10-26,54,45,33,42,35,31,93,69,47,30.07,29.77,7,2,18,0.00
2013-10-27,57,49,40,41,36,32,78,60,42,29.96,29.72,7,1,15,0.00
2013-10-28,59,46,34,40,36,31,90,70,45,30.17,29.96,5,1,10,0.00
2013-10-29,53,45,36,39,35,32,86,69,48,30.27,30.17,5,0,10,0.01
2013-10-30,59,48,36,53,44,32,93,84,69,30.22,30.06,3,0,5,0.00
2013-10-31,65,58,49,61,55,47,99,92,84,30.09,29.70,6,1,12,0.00
2013-11-1,65,62,56,63,60,56,97,94,88,29.71,29.43,10,2,17,0.08
2013-11-2,64,56,50,56,51,47,99,85,56,29.61,29.47,2,0,9,0.00
2013-11-3,52,46,38,47,37,24,94,71,55,30.27,29.61,10,1,16,0.00
2013-11-4,45,37,30,28,24,22,79,60,39,30.53,30.28,3,1,9,0.00
2013-11-5,53,41,30,40,35,25,90,78,58,30.53,30.36,2,0,6,0.00
2013-11-6,59,48,34,55,44,32,99,88,70,30.38,29.95,4,0,7,0.00
2013-11-7,61,55,40,61,54,37,99,95,83,29.95,29.59,5,1,17,0.29
2013-11-8,48,42,34,36,31,27,95,68,45,30.05,29.76,10,2,19,0.00
2013-11-9,49,42,32,39,31,27,86,67,46,30.13,29.89,5,1,12,0.00
2013-11-10,60,50,46,42,37,31,76,61,33,29.89,29.63,14,3,30,0.00
2013-11-11,52,48,42,41,33,29,70,56,43,30.03,29.82,12,2,18,0.00
2013-11-12,51,38,31,39,30,20,94,71,61,30.10,29.78,10,2,16,0.11
2013-11-13,37,31,26,21,19,16,76,63,44,30.19,30.10,7,2,18,0.00
2013-11-14,48,39,26,30,23,19,79,54,36,30.12,30.00,5,1,15,0.00
2013-11-15,53,42,32,42,35,28,95,77,60,30.11,30.04,3,1,6,0.00
2013-11-16,56,44,35,47,41,34,97,88,67,30.18,30.09,3,0,6,0.01
2013-11-17,60,54,38,59,52,36,99,96,92,30.15,29.69,7,1,10,0.01
2013-11-18,64,58,51,60,47,31,99,71,39,29.69,29.46,8,2,17,0.24
2013-11-19,51,44,35,32,28,23,64,53,46,30.19,29.59,15,3,27,0.00
2013-11-20,41,33,24,23,21,18,79,62,41,30.47,30.18,3,1,10,0.00
2013-11-21,48,36,23,41,30,18,89,79,62,30.49,30.26,3,0,5,0.00
2013-11-22,53,49,44,51,47,41,99,94,89,30.26,29.73,4,0,7,0.10
2013-11-23,51,42,32,50,31,13,98,64,42,29.84,29.72,16,3,23,0.00
2013-11-24,32,27,24,16,7,-2,57,43,26,30.17,29.79,18,4,27,0.00
2013-11-25,35,27,16,23,14,8,80,60,40,30.33,30.17,12,1,14,0.00
2013-11-26,51,40,34,51,30,20,99,69,45,30.20,29.73,7,1,10,0.28
2013-11-27,61,50,36,60,49,29,99,96,77,29.72,29.14,12,3,20,1.27
2013-11-28,36,30,23,28,20,15,81,64,48,30.33,29.52,18,3,27,0.00
2013-11-29,38,30,24,24,21,18,83,69,49,30.58,30.33,6,1,12,0.00
2013-11-30,40,29,20,35,21,16,86,74,52,30.62,30.26,3,0,4,0.00
2013-12-1,50,43,35,46,41,34,97,92,81,30.24,29.87,3,0,6,0.01
2013-12-2,46,37,32,42,36,31,99,94,84,29.87,29.75,2,0,5,0.00
2013-12-3,49,38,31,40,34,29,99,88,60,29.86,29.72,6,0,7,0.00
2013-12-4,50,39,28,44,36,27,98,88,68,30.01,29.86,2,0,5,0.00
2013-12-5,60,54,45,58,52,44,99,96,92,30.01,29.82,4,1,12,0.00
2013-12-6,56,47,38,56,47,37,100,97,93,29.97,29.76,6,1,9,0.29
2013-12-7,39,35,29,38,32,23,99,87,72,30.35,29.92,5,1,17,0.22
2013-12-8,34,30,24,31,25,20,96,82,68,30.45,30.25,2,0,4,0.00
2013-12-9,47,37,32,47,37,30,100,98,95,30.25,29.77,7,1,9,0.43
2013-12-10,36,33,28,34,31,22,98,94,79,29.96,29.67,7,1,13,0.09
2013-12-11,33,29,25,22,19,17,77,66,55,30.17,29.96,7,2,15,0.00
2013-12-12,28,24,18,19,13,8,78,64,47,30.19,30.01,9,1,16,0.00
2013-12-13,33,27,21,20,14,8,82,59,47,30.20,29.97,9,2,21,0.00
2013-12-14,39,27,22,39,23,19,98,87,71,30.39,29.76,7,1,11,0.19
2013-12-15,47,36,31,46,34,24,99,91,70,29.72,29.29,14,3,23,1.66
2013-12-16,32,27,17,24,16,11,83,63,48,30.09,29.67,15,2,20,0.00
2013-12-17,34,26,17,33,24,12,98,90,75,30.10,29.75,3,1,9,0.55
2013-12-18,34,29,24,26,24,22,95,84,68,30.02,29.74,14,2,20,0.00
2013-12-19,43,34,23,35,28,20,94,80,60,30.04,29.89,6,1,14,0.06
2013-12-20,48,41,31,45,38,30,99,88,69,29.98,29.84,4,1,12,0.01
2013-12-21,54,50,45,52,48,44,98,93,86,29.89,29.78,10,2,12,0.00
2013-12-22,59,55,53,57,54,52,99,95,88,29.85,29.72,10,2,15,0.00
2013-12-23,56,52,40,54,51,39,99,97,93,29.98,29.74,9,1,12,0.37
2013-12-24,40,35,28,39,28,20,95,75,55,30.14,29.92,10,2,18,0.00
2013-12-25,28,24,20,20,14,11,78,65,53,30.39,30.15,7,1,16,0.00
2013-12-26,37,30,24,32,25,17,91,82,69,30.32,30.00,6,1,14,0.02
2013-12-27,38,29,22,26,22,19,94,77,49,30.21,30.12,11,1,14,0.00
2013-12-28,47,36,24,39,31,22,97,83,58,30.15,29.93,6,1,13,0.01
2013-12-29,53,42,35,53,40,33,99,94,83,29.94,29.21,7,1,17,1.37
2013-12-30,43,35,23,40,29,14,99,80,65,30.03,29.51,10,1,15,0.00
2013-12-31,31,25,18,22,16,11,79,67,51,30.11,29.92,9,1,15,0.00
2014-1-1,31,27,19,23,16,10,78,66,49,30.27,30.11,7,1,13,0.00
2014-1-2,31,28,19,28,25,18,95,89,71,30.13,29.51,7,2,9,0.00